Whale Point, California Weather observations

Data are for observation ending at time listed.
 Day   Time    Ave.   Ave.  Ave.  Vector   Max.   Stn.    Total    Solar   Ave.  
  of    of     Air    Rel.  Wind   Wind    Wind   Baro.  Precip.   Rad.    Soil  
Year   Day     Temp.  Hum.  Speed  Dir.    Gust   Pres.                    Temp. 
2017   (PST)    F      %     mph   deg.    mph     mb.     in.     W/m2     F   
------------------------------------------------------------------------------
 293    9:40   58.5    53    7.5   350     17.2   997.3    0.00     587    65.7
 293    9:50   58.0    56   10.1     5     25.2   997.6    0.00     593    65.6
 293   10:00   57.3    61   11.1   357     20.5   997.3    0.00     622    65.6
 293   10:10   57.5    62    9.7     0     22.6   997.6    0.00     639    65.5
 293   10:20   57.8    61    9.5     5     18.6   997.6    0.00     649    65.4
 293   10:30   57.8    63    9.3   356     23.5   997.6    0.00     653    65.4
 293   10:40   57.3    66   10.9   358     23.2   997.6    0.00     672    65.4
 293   10:50   57.1    66   13.0   349     23.2   997.6    0.00     691    65.3
 293   11:00   57.0    68   12.2   350     26.4   998.0    0.00     705    65.3
 293   11:10   57.0    67   10.1     0     21.0   998.0    0.00     715    65.3
 293   11:20   56.8    67   10.8   344     25.9   998.0    0.00     718    65.2
 293   11:30   56.9    66   13.1   356     23.8   998.0    0.00     721    65.2
 293   11:40   56.8    66   14.3   359     26.5   997.6    0.00     725    65.2
 293   11:50   57.0    66   13.6    15     34.3   997.6    0.00     724    65.2
 293   12:00   56.9    66   15.0    14     26.5   997.6    0.00     724    65.2
 293   12:10   57.4    65    9.4    23     27.9   997.6    0.00     723    65.2
 293   12:20   57.5    66    6.5    32     25.4   997.6    0.00     719    65.2
 293   12:30   57.2    68    8.6    22     26.1   997.6    0.00     712    65.3
 293   12:40   56.8    70    7.2    28     27.7   997.3    0.00     708    65.3
 293   12:50   57.5    70    7.8    43     21.5   997.3    0.00     694    65.3
 293   13:00   57.8    70    8.0    66     26.2   997.3    0.00     693    65.3
 293   13:10   57.2    72    9.8    25     28.4   997.0    0.00     668    65.3
 293   13:20   57.1    73    9.5    28     26.5   997.0    0.00     657    65.4
 293   13:30   56.9    73    8.6    14     26.8   997.0    0.00     618    65.4
 293   13:40   56.5    74   11.5     3     28.7   997.3    0.00     615    65.5
 293   13:50   56.3    75   13.5    12     29.8   997.0    0.00     602    65.5
 293   14:00   56.3    74   14.4    16     34.0   996.6    0.00     579    65.5
 293   14:10   56.7    72   12.4   356     29.0   997.0    0.00     553    65.6
 293   14:20   56.6    71   17.4   355     35.9   997.0    0.00     487    65.6
 293   14:30   56.4    71   17.6   354     30.0   997.0    0.00     488    65.7
 293   14:40   56.4    70   17.8   359     37.0   997.0    0.00     479    65.7
 293   14:50   56.4    70   18.7   358     34.1   997.0    0.00     456    65.8
 293   15:00   56.5    70   17.5   348     31.1   997.0    0.00     424    65.9
 293   15:10   56.4    71   16.8   345     32.9   997.0    0.00     386    65.9
 293   15:20   56.4    70   16.7   344     29.7   997.0    0.00     355    66.0
 293   15:30   56.2    70   19.1   354     31.7   997.0    0.00     339    66.0
 293   15:40   56.2    70   17.4   346     33.3   997.0    0.00     306    66.1
 293   15:50   56.1    69   18.9   350     30.8   997.0    0.00     300    66.1
 293   16:00   56.2    70   18.2   352     31.1   997.0    0.00     297    66.2
 293   16:10   55.5    72   19.8   353     31.1   997.3    0.00     113    66.2
 293   16:20   55.2    74   18.1   352     33.1   997.3    0.00     123    66.3
 293   16:30   55.4    74   16.6   352     29.5   997.3    0.00     160    66.2
 293   16:40   55.5    73   16.3   348     25.8   997.3    0.00     103    66.3
 293   16:50   55.8    71   14.8   346     24.6   997.3    0.00      92    66.3
 293   17:00   55.9    70   14.9   348     23.3   997.3    0.00      62    66.3
 293   17:10   55.8    70   11.8   342     22.0   997.3    0.00      37    66.3
 293   17:20   55.7    70   12.6   342     22.4   997.6    0.00      17    66.3
 293   17:30   55.4    70    9.6   335     19.5   997.6    0.00       5    66.3
 293   17:40   55.5    69    9.6   331     23.8   997.6    0.00       2    66.3
 293   17:50   55.4    69    7.0   338     15.2   998.0    0.00       0    66.3
 293   18:00   55.6    67    6.8   355     14.1   997.6    0.00       0    66.3
 293   18:10   55.6    67    6.2    15     10.4   997.6    0.00       0    66.3
 293   18:20   55.5    66    6.9    16     12.4   998.0    0.00       0    66.3
 293   18:30   55.4    66    6.0   359     11.4   998.0    0.00       0    66.3
 293   18:40   55.0    67    8.3     5     15.1   998.3    0.00       0    66.2
 293   18:50   55.4    63    8.0     5     15.4   998.3    0.00       0    66.2
 293   19:00   54.6    65    7.6    29     11.4   998.3    0.00       0    66.2
 293   19:10   55.4    61    7.0    32     10.2   998.0    0.00       0    66.2
 293   19:20   54.8    61    5.1    22      9.1   998.3    0.00       0    66.1
 293   19:30   54.8    59    5.0    10     10.4   998.3    0.00       0    66.1
 293   19:40   55.6    56    5.3    22     10.7   998.3    0.00       0    66.1
 293   19:50   55.3    56    7.0     5     11.7   998.3    0.00       0    66.0
 293   20:00   55.7    55    6.0   349     16.5   998.3    0.00       0    65.9
 293   20:10   55.1    57    4.5    12      9.2   998.3    0.00       0    65.9
 293   20:20   55.4    56    4.4   340     11.0   998.3    0.00       0    65.9
 293   20:30   55.3    55    3.3    17      7.6   998.3    0.00       0    65.8
 293   20:40   55.3    55    5.8   359     12.6   998.6    0.00       0    65.8
 293   20:50   55.4    54    3.6    13      8.1   998.6    0.00       0    65.7
 293   21:00   55.6    52    6.6   360     13.4   998.6    0.00       0    65.6
 293   21:10   55.3    52    4.4     5      7.7   998.6    0.00       0    65.6
 293   21:20   55.0    52    4.3    11      8.7   999.0    0.00       0    65.5
 293   21:30   55.5    48    6.0    25      8.8   999.0    0.00       0    65.5
 293   21:40   55.5    48    7.4    19     14.0   999.0    0.00       0    65.4
 293   21:50   55.3    48    7.7    10     12.9   999.0    0.00       0    65.3
 293   22:00   54.8    49    9.3    15     13.1   999.0    0.00       0    65.3
 293   22:10   54.8    48    8.0    10     12.6   999.0    0.00       0    65.2
 293   22:20   55.4    47    8.8    13     13.3   999.0    0.00       0    65.1
 293   22:30   55.5    47    8.4    26     15.2   999.0    0.00       0    65.1
 293   22:40   55.1    48    7.5    14     12.9   999.0    0.00       0    65.0
 293   22:50   55.1    47    7.0     4     13.0   998.6    0.00       0    64.9
 293   23:00   55.8    43    4.8   354     10.9   998.6    0.00       0    64.9
 293   23:10   56.6    39    7.6     1     14.0   998.6    0.00       0    64.8
 293   23:20   56.7    39    5.8   338     15.4   998.6    0.00       0    64.7
 293   23:30   55.9    41    2.7   336      8.9   999.0    0.00       0    64.7
 293   23:40   55.4    43    1.7     4      7.1   999.0    0.00       0    64.6
 293   23:50   55.4    43    3.7    33      7.4   999.0    0.00       0    64.6
 294    0:00   55.6    41    5.8    30      8.6   999.0    0.00       0    64.5
 294    0:10   55.8    41    5.4     9      9.1   999.3    0.00       0    64.4
 294    0:20   55.3    42    4.9    14      8.9   999.3    0.00       0    64.4
 294    0:30   55.3    42    6.8    18     10.3   999.3    0.00       0    64.3
 294    0:40   55.1    44    7.2     9     12.5   999.3    0.00       0    64.2
 294    0:50   54.9    46    7.9    10     13.5   999.3    0.00       0    64.2
 294    1:00   54.4    46    9.3    30     13.6   999.3    0.00       0    64.1
 294    1:10   55.1    40    6.9    22     10.4   999.3    0.00       0    64.1
 294    1:20   55.4    38    7.1     8     14.8   999.3    0.00       0    64.0
 294    1:30   56.3    35    7.8     0     13.2   999.3    0.00       0    63.9
 294    1:40   56.3    35    5.1     7      7.5   999.3    0.00       0    63.9
 294    1:50   56.4    35    4.1    10      8.4   999.3    0.00       0    63.8
 294    2:00   55.7    40    4.4   356      7.3   999.3    0.00       0    63.7
 294    2:10   55.8    39    6.9     2     13.0   999.3    0.00       0    63.7
 294    2:20   55.7    40    6.2   360     12.0   999.3    0.00       0    63.6
 294    2:30   55.8    41    8.1    10     12.9   999.3    0.00       0    63.6
 294    2:40   56.2    39    7.0    25     10.8   999.3    0.00       0    63.5
 294    2:50   55.8    40    3.7   353      7.7   999.3    0.00       0    63.4
 294    3:00   55.0    43    3.1   312      7.5   999.3    0.00       0    63.4
 294    3:10   54.3    45    2.9    25      7.3   999.3    0.00       0    63.3
 294    3:20   54.2    46    2.6   355      6.5   999.3    0.00       0    63.3
 294    3:30   53.2    50    1.1   126      4.4   999.0    0.00       0    63.2
 294    3:40   53.1    50    1.3   319      5.0   999.0    0.00       0    63.2
 294    3:50   54.5    42    4.5   331     10.0   999.0    0.00       0    63.1
 294    4:00   55.2    40    4.5   324     11.5   999.3    0.00       0    63.1
 294    4:10   56.4    37    6.9   341     15.1   999.3    0.00       0    63.0
 294    4:20   56.5    37    4.0    21     13.0   999.3    0.00       0    63.0
 294    4:30   56.0    38    1.4    46      5.6   999.3    0.00       0    62.9
 294    4:40   55.4    41    1.3   149      4.0   999.3    0.00       0    62.9
 294    4:50   54.9    42    2.1     5      5.2   999.3    0.00       0    62.8
 294    5:00   55.5    40    2.3   323      9.0   999.3    0.00       0    62.8
 294    5:10   55.6    39    3.6   310     12.3   999.7    0.00       0    62.7
 294    5:20   56.4    35    5.2   338     14.6   999.7    0.00       0    62.7
 294    5:30   57.2    33    5.5   357      9.3   999.3    0.00       0    62.6
 294    5:40   57.2    32    2.8   348      7.5   999.3    0.00       0    62.6
 294    5:50   56.5    33    2.0   277      8.5   999.7    0.00       0    62.5
 294    6:00   55.2    37    1.9   130      8.6   999.7    0.00       0    62.5
 294    6:10   54.9    42    3.3   149     12.4   1000.0    0.00       1    62.4
 294    6:20   54.4    41    2.2    28      6.5   1000.0    0.00       4    62.4
 294    6:30   54.7    39    2.1   276      5.8   1000.0    0.00       7    62.3
 294    6:40   56.0    33    2.4   331      6.0   1000.0    0.00      11    62.3
 294    6:50   57.3    31    3.6   314      9.6   1000.0    0.00      13    62.2
 294    7:00   56.2    34    2.9   270      8.4   1000.3    0.00      14    62.2
 294    7:10   55.5    40    2.3   222      7.7   1000.3    0.00      15    62.2
 294    7:20   53.5    46    3.1   175      7.5   1000.3    0.00      17    62.1
 294    7:30   53.3    46    2.0   177      5.6   1000.3    0.00      18    62.1
 294    7:40   54.1    46    3.3   190     10.4   1000.7    0.00      19    62.0
 294    7:50   54.3    45    4.4   185     11.3   1001.0    0.00      20    62.0
 294    8:00   53.5    48    0.9    52      2.9   1001.0    0.00      63    62.0
 294    8:10   54.0    46    2.3    36      4.7   1001.4    0.00     319    61.9
 294    8:20   56.7    40    1.0    87      5.7   1001.4    0.00     352    61.8
 294    8:30   58.4    38    1.3   322      4.2   1001.7    0.00     383    61.8
 294    8:40   59.0    37    1.3   299      4.1   1001.7    0.00     415    61.7
 294    8:50   59.3    38    0.8   282      3.1   1001.7    0.00     443    61.7
 294    9:00   59.9    39    1.0   239      3.9   1001.7    0.00     469    61.7
 294    9:10   59.7    40    1.8   222      4.3   1001.7    0.00     497    61.7
 294    9:20   60.5    39    1.6   206      4.2   1001.7    0.00     526    61.7
 294    9:30   59.9    42    1.7   248      4.7   1001.7    0.00     535    61.6

Return to Whale Point graphs page.


Western Regional Climate Center,wrcc@dri.edu